Relevés horaires Matro (Suisse)


Relevés horaires à Matro - Mardi 30 Déc. 2014
Heure UTC1 Température [°C] Vent [km/h] Hum. [%] Pres.4 [hPa] Visi. [Km] Nébu. [octa] Préc.5 [mm] Cond.
2m. Res. Ros. Dir.2 Vit. Moy. Raf.3
23:00 -5.8 -15.6 -12.7 NNO 44.4 44.4 70.4 58 850(-0.3/3h) -- -- -- --
22:00 -6.4 -16.7 -13.1 NNO 48.2 48.2 74.1 59 850(0.1/3h) -- -- -- --
21:00 -7.1 -16.6 -13.2 NO 37.0 51.9 83.3 62 850(0.7/3h) -- -- -- --
20:00 -6.4 -16.7 -13.1 NO 48.2 51.9 77.8 59 850(0.7/3h) -- -- -- --
19:00 -8.3 -19.1 -13.7 NO 46.3 51.9 83.3 65 850(0.6/3h) -- -- -- --
18:00 -8.2 -19.6 -14.0 NO 53.7 63.0 92.6 63 850(-0.1/3h) -- -- -- --
17:00 -8.7 -21 -13.5 NNO 63.0 63.0 87.0 68 850(-0.4/3h) -- -- -- --
16:00 -8.8 -21 -13.3 NNO 61.1 61.1 87.0 70 850(-0.7/3h) -- -- -- --
15:00 -8.8 -21 -12.4 NNO 61.1 61.1 83.3 75 850(-1.1/3h) -- -- -- --
14:00 -8.6 -20.3 -11.9 NNO 55.6 59.3 83.3 77 850(-1.1/3h) -- -- -- --
13:00 -8.2 -19.6 -13.6 NNO 53.7 53.7 77.8 65 850(-1.1/3h) -- -- -- --
12:00 -8.5 -19.9 -13.8 NNO 51.9 59.3 94.5 65 850(-0.4/3h) -- -- -- --
11:00 -8.5 -19.9 -14.5 NNO 51.9 59.3 94.5 62 850(-0.1/3h) -- -- -- --
10:00 -9.0 -20.6 -14.2 NNO 51.9 55.6 75.9 66 850(0.4/3h) -- -- -- --
09:00 -9.5 -21.6 -15.9 NNO 55.6 55.6 83.3 59 850(0.6/3h) -- -- -- --
08:00 -10.4 -22.6 -16.3 NNO 53.7 53.7 72.2 62 850(0.7/3h) -- -- -- --
07:00 -12.0 -24.3 -16.9 NNO 48.2 50.0 64.8 67 850(0.3/3h) -- -- -- --
06:00 -12.2 -25.3 -17.8 NNO 55.6 55.6 81.5 63 850(0.0/3h) -- -- -- --
05:00 -12.4 -25.4 -18.2 NNO 53.7 53.7 68.5 62 850(0.1/3h) -- -- -- --
04:00 -12.5 -25.2 -18.2 NNO 50.0 50.0 63.0 62 850(0.6/3h) -- -- -- --
03:00 -12.5 -24.6 -19.0 NNO 44.4 53.7 81.5 58 850(1.0/3h) -- -- -- --
02:00 -12.3 -24.7 -19.3 NO 48.2 53.7 81.5 56 850(1.3/3h) -- -- -- --
01:00 -12.7 -24.9 -19.0 NO 44.4 -- 75.9 59 781.2(0.8/3h) -- -- -- --
00:00 -12.9 -26.1 -18.2 NO 53.7 68.5 92.6 64 850(0.4/3h) -- -- -- --

1 Coordinated Universal Time. Actuellement il est 13:00 locale et 11:00 UTC.

2 Le vent souffle depuis la direction indiquée vers la direction oposée.

3 Les rafales max. sont disponible 40 min après l'heure du relevé.

4 Pour les stations d'altitude (plus de 600m) le géopotentiel du niveau le plus proche de la pression obligatoire est indiqué.

5 Les stations disposant d'un diffuseur peuvent indiquer "trace". Cela signifie que des précipitations ont touchés le sol mais que la quantité est inférieure à 0.1 mm.

Copyright

Les données affichées sur cette page sont la propriété exclusive de Météo Suisse.

Récapitulatif de la journée
Température [°C] Vent [km/h] Ensoleillement4 [h] Precipitations totale5 [mm] Pression [Hpa]
Min1 Max.2 Moy.3 Max. Min Max.
-13.0 -8.1 55.6 94.5 5 h 54 min 0 781.2 850.0

1 Température minimale relevée entre 18:00 UTC la veille et 18:00 UTC le jour donné.

2 Température maximale relevée entre 06:00 UTC le jour donné et 06:00 UTC le lendemain.

3 Vent moyen de la journée basé sur les relevés horaires.

4 Ensoleillement en heures relevé entre 06:00 UTC la veille et 06:00 UTC le jour donné.

5 Précipitations totales tombées entre 06:00 UTC la jour donné et 06:00 UTC le lendemain.

Graphiques horaires